Belo Horizonte, Brazil

4:16 PM BRST on October 31, 2014 (GMT -0200)
Lagoa Santa | Change Station
CLOSE
Current Station
Airport
Location: Lagoa Santa Airport,
Elevation: 2795 ft
Nearby Weather Stations

Elev 2795 ft 19.66 °S, 43.90 °W | Updated 16 minutes ago

Partly Cloudy
Partly Cloudy
84 °F
Feels Like 84 °F
N
6
Wind Variable Wind from Variable

Today
High -- | Low -- °F
--% Chance of Precip.
Yesterday
High -- | Low -- °F
Precip. -- in
6:15 AM 7:03 PM
First Quarter, 57% visible
Pressure 30.01 in
Visibility 6.2 miles
Clouds Scattered Clouds 3600 ft
Few 3700 ft
Heat Index 84 °F
Dew Point 59 °F
Humidity 42%
Rainfall 0.00 in
Snow Depth Not available.
UV 6 out of 12
Pollen Not available.
Air Quality Not available.
Flu Activity Not available.
METAR SBLS 311800Z VRB05KT 9999 SCT036 FEW037TCU 29/15 Q1016

More Conditions Fewer Conditions

Pressure 30.01 in
Visibility 6.2 miles
Clouds Scattered Clouds 3600 ft
Few 3700 ft
Heat Index 84 °F
Dew Point 59 °F
Humidity 42%
Rainfall 0.00 in
Snow Depth Not available.
UV 6 out of 12
Pollen Not available.
Air Quality Not available.
Flu Activity Not available.
METAR SBLS 311800Z VRB05KT 9999 SCT036 FEW037TCU 29/15 Q1016

More Conditions Fewer Conditions

10-Day Weather Forecast

Almanac

Astronomy

Oct. 31, 2014 Rise Set
Actual Time
Civil Twilight
Nautical Twilight
Astronomical Twilight
Moon
Length of Visible Light
Length of Day
Tomorrow will be .
, % of the Moon is Illuminated

Today's Extremes

Country Highs Country Lows

Community

WunderPhotos

Upload Photos

1,766,683 photos uploaded!

WunderBlogs® & News

Nearby

Air Quality

  Air Quality AQ Index Pollutant
Not available.

Snow Depth

Station Depth Elevation

Earthquake Activity

City Distance Mag. Time & Date
Minimum magnitude displayed is 2.5.

Coastal Water Temperatures

Place Temperature

Nearby Weather Stations